sensor_id;sensor_type;location;lat;lon;timestamp;temperature;humidity
21830;DHT22;11077;50.264;6.798;2023-01-28T00:01:46;0.50;99.90
21830;DHT22;11077;50.264;6.798;2023-01-28T00:04:13;0.40;99.90
21830;DHT22;11077;50.264;6.798;2023-01-28T00:06:40;0.40;99.90
21830;DHT22;11077;50.264;6.798;2023-01-28T00:13:02;0.40;99.90
21830;DHT22;11077;50.264;6.798;2023-01-28T00:15:29;0.40;99.90
21830;DHT22;11077;50.264;6.798;2023-01-28T00:17:58;0.40;99.90
21830;DHT22;11077;50.264;6.798;2023-01-28T00:20:25;0.50;99.90
21830;DHT22;11077;50.264;6.798;2023-01-28T00:22:52;0.50;99.90
21830;DHT22;11077;50.264;6.798;2023-01-28T00:25:19;0.40;99.90
21830;DHT22;11077;50.264;6.798;2023-01-28T00:27:48;0.40;99.90
21830;DHT22;11077;50.264;6.798;2023-01-28T00:30:16;0.40;99.90
21830;DHT22;11077;50.264;6.798;2023-01-28T00:32:43;0.40;99.90
21830;DHT22;11077;50.264;6.798;2023-01-28T00:35:13;0.40;99.90
21830;DHT22;11077;50.264;6.798;2023-01-28T00:37:40;0.30;99.90
21830;DHT22;11077;50.264;6.798;2023-01-28T00:40:09;0.30;99.90
21830;DHT22;11077;50.264;6.798;2023-01-28T00:42:36;0.40;99.90
21830;DHT22;11077;50.264;6.798;2023-01-28T00:45:04;0.40;99.90
21830;DHT22;11077;50.264;6.798;2023-01-28T00:47:32;0.30;99.90
21830;DHT22;11077;50.264;6.798;2023-01-28T00:49:59;0.40;99.90
21830;DHT22;11077;50.264;6.798;2023-01-28T00:52:28;0.30;99.90
21830;DHT22;11077;50.264;6.798;2023-01-28T00:54:55;0.30;99.90
21830;DHT22;11077;50.264;6.798;2023-01-28T00:57:23;0.30;99.90
21830;DHT22;11077;50.264;6.798;2023-01-28T00:59:50;0.40;99.90
21830;DHT22;11077;50.264;6.798;2023-01-28T01:02:17;0.30;99.90
21830;DHT22;11077;50.264;6.798;2023-01-28T01:04:44;0.30;99.90
21830;DHT22;11077;50.264;6.798;2023-01-28T01:07:21;0.30;99.90
21830;DHT22;11077;50.264;6.798;2023-01-28T01:10:01;0.30;99.90
21830;DHT22;11077;50.264;6.798;2023-01-28T01:12:29;0.30;99.90
21830;DHT22;11077;50.264;6.798;2023-01-28T01:14:56;0.30;99.90
21830;DHT22;11077;50.264;6.798;2023-01-28T01:17:23;0.30;99.90
21830;DHT22;11077;50.264;6.798;2023-01-28T01:19:51;0.30;99.90
21830;DHT22;11077;50.264;6.798;2023-01-28T01:22:18;0.30;99.90
21830;DHT22;11077;50.264;6.798;2023-01-28T01:24:46;0.30;99.90
21830;DHT22;11077;50.264;6.798;2023-01-28T01:27:15;0.30;99.90
21830;DHT22;11077;50.264;6.798;2023-01-28T01:29:43;0.30;99.90
21830;DHT22;11077;50.264;6.798;2023-01-28T01:32:10;0.30;99.90
21830;DHT22;11077;50.264;6.798;2023-01-28T01:34:37;0.30;99.90
21830;DHT22;11077;50.264;6.798;2023-01-28T01:37:04;0.30;99.90
21830;DHT22;11077;50.264;6.798;2023-01-28T01:39:33;0.20;99.90
21830;DHT22;11077;50.264;6.798;2023-01-28T01:42:00;0.30;99.90
21830;DHT22;11077;50.264;6.798;2023-01-28T01:44:57;0.30;99.90
21830;DHT22;11077;50.264;6.798;2023-01-28T01:47:27;0.30;99.90
21830;DHT22;11077;50.264;6.798;2023-01-28T01:50:01;0.30;99.90
21830;DHT22;11077;50.264;6.798;2023-01-28T01:52:32;0.20;99.90
21830;DHT22;11077;50.264;6.798;2023-01-28T01:55:05;0.20;99.90
21830;DHT22;11077;50.264;6.798;2023-01-28T01:57:35;0.30;99.90
21830;DHT22;11077;50.264;6.798;2023-01-28T02:00:06;0.30;99.90
21830;DHT22;11077;50.264;6.798;2023-01-28T02:02:44;0.30;99.90
21830;DHT22;11077;50.264;6.798;2023-01-28T02:05:14;0.30;99.90
21830;DHT22;11077;50.264;6.798;2023-01-28T02:07:44;0.30;99.90
21830;DHT22;11077;50.264;6.798;2023-01-28T02:10:12;0.20;99.90
21830;DHT22;11077;50.264;6.798;2023-01-28T02:12:42;0.30;99.90
21830;DHT22;11077;50.264;6.798;2023-01-28T02:15:14;0.20;99.90
21830;DHT22;11077;50.264;6.798;2023-01-28T02:17:42;0.20;99.90
21830;DHT22;11077;50.264;6.798;2023-01-28T02:20:12;0.20;99.90
21830;DHT22;11077;50.264;6.798;2023-01-28T02:23:13;0.30;99.90
21830;DHT22;11077;50.264;6.798;2023-01-28T02:29:00;0.20;99.90
21830;DHT22;11077;50.264;6.798;2023-01-28T02:31:33;0.20;99.90
21830;DHT22;11077;50.264;6.798;2023-01-28T02:34:04;0.20;99.90
21830;DHT22;11077;50.264;6.798;2023-01-28T02:36:37;0.20;99.90
21830;DHT22;11077;50.264;6.798;2023-01-28T02:39:12;0.20;99.90
21830;DHT22;11077;50.264;6.798;2023-01-28T02:41:48;0.20;99.90
21830;DHT22;11077;50.264;6.798;2023-01-28T02:44:17;0.20;99.90
21830;DHT22;11077;50.264;6.798;2023-01-28T02:46:44;0.20;99.90
21830;DHT22;11077;50.264;6.798;2023-01-28T02:49:39;0.20;99.90
21830;DHT22;11077;50.264;6.798;2023-01-28T02:52:29;0.20;99.90
21830;DHT22;11077;50.264;6.798;2023-01-28T02:55:28;0.20;99.90
21830;DHT22;11077;50.264;6.798;2023-01-28T02:58:03;0.20;99.90
21830;DHT22;11077;50.264;6.798;2023-01-28T03:00:42;0.20;99.90
21830;DHT22;11077;50.264;6.798;2023-01-28T03:03:14;0.20;99.90
21830;DHT22;11077;50.264;6.798;2023-01-28T03:05:47;0.20;99.90
21830;DHT22;11077;50.264;6.798;2023-01-28T03:08:35;0.20;99.90
21830;DHT22;11077;50.264;6.798;2023-01-28T03:11:22;0.20;99.90
21830;DHT22;11077;50.264;6.798;2023-01-28T03:14:09;0.20;99.90
21830;DHT22;11077;50.264;6.798;2023-01-28T03:16:56;0.20;99.90
21830;DHT22;11077;50.264;6.798;2023-01-28T03:19:43;0.10;99.90
21830;DHT22;11077;50.264;6.798;2023-01-28T03:22:32;0.10;99.90
21830;DHT22;11077;50.264;6.798;2023-01-28T03:25:19;0.10;99.90
21830;DHT22;11077;50.264;6.798;2023-01-28T03:28:09;0.10;99.90
21830;DHT22;11077;50.264;6.798;2023-01-28T03:31:03;0.10;99.90
21830;DHT22;11077;50.264;6.798;2023-01-28T03:33:56;0.10;99.90
21830;DHT22;11077;50.264;6.798;2023-01-28T03:36:42;0.10;99.90
21830;DHT22;11077;50.264;6.798;2023-01-28T03:40:01;0.20;99.90
21830;DHT22;11077;50.264;6.798;2023-01-28T03:42:30;0.10;99.90
21830;DHT22;11077;50.264;6.798;2023-01-28T03:45:09;0.10;99.90
21830;DHT22;11077;50.264;6.798;2023-01-28T03:47:36;0.10;99.90
21830;DHT22;11077;50.264;6.798;2023-01-28T03:50:09;0.10;99.90
21830;DHT22;11077;50.264;6.798;2023-01-28T03:52:47;0.10;99.90
21830;DHT22;11077;50.264;6.798;2023-01-28T03:55:23;0.10;99.90
21830;DHT22;11077;50.264;6.798;2023-01-28T03:57:51;0.10;99.90
21830;DHT22;11077;50.264;6.798;2023-01-28T04:00:19;0.10;99.90
21830;DHT22;11077;50.264;6.798;2023-01-28T04:02:47;0.10;99.90
21830;DHT22;11077;50.264;6.798;2023-01-28T04:05:18;0.00;99.90
21830;DHT22;11077;50.264;6.798;2023-01-28T04:07:47;0.00;99.90
21830;DHT22;11077;50.264;6.798;2023-01-28T04:10:35;0.00;99.90
21830;DHT22;11077;50.264;6.798;2023-01-28T04:13:23;-0.10;99.90
21830;DHT22;11077;50.264;6.798;2023-01-28T04:15:50;0.00;99.90
21830;DHT22;11077;50.264;6.798;2023-01-28T04:18:18;0.00;99.90
21830;DHT22;11077;50.264;6.798;2023-01-28T04:20:54;0.00;99.90
21830;DHT22;11077;50.264;6.798;2023-01-28T04:23:21;0.00;99.90
21830;DHT22;11077;50.264;6.798;2023-01-28T04:25:49;-0.10;99.90
21830;DHT22;11077;50.264;6.798;2023-01-28T04:28:17;-0.10;99.90
21830;DHT22;11077;50.264;6.798;2023-01-28T04:30:44;-0.10;99.90
21830;DHT22;11077;50.264;6.798;2023-01-28T04:33:22;-0.10;99.90
21830;DHT22;11077;50.264;6.798;2023-01-28T04:35:50;0.00;99.90
21830;DHT22;11077;50.264;6.798;2023-01-28T04:38:42;0.00;99.90
21830;DHT22;11077;50.264;6.798;2023-01-28T04:41:28;-0.10;99.90
21830;DHT22;11077;50.264;6.798;2023-01-28T04:44:01;-0.10;99.90
21830;DHT22;11077;50.264;6.798;2023-01-28T04:46:35;-0.10;99.90
21830;DHT22;11077;50.264;6.798;2023-01-28T04:49:22;-0.20;99.90
21830;DHT22;11077;50.264;6.798;2023-01-28T04:52:11;-0.20;99.90
21830;DHT22;11077;50.264;6.798;2023-01-28T04:54:53;-0.10;99.90
21830;DHT22;11077;50.264;6.798;2023-01-28T04:57:21;-0.20;99.90
21830;DHT22;11077;50.264;6.798;2023-01-28T04:59:48;-0.20;99.90
21830;DHT22;11077;50.264;6.798;2023-01-28T05:02:16;-0.20;99.90
21830;DHT22;11077;50.264;6.798;2023-01-28T05:04:46;-0.20;99.90
21830;DHT22;11077;50.264;6.798;2023-01-28T05:07:27;-0.30;99.90
21830;DHT22;11077;50.264;6.798;2023-01-28T05:09:56;-0.30;99.90
21830;DHT22;11077;50.264;6.798;2023-01-28T05:12:23;-0.30;99.90
21830;DHT22;11077;50.264;6.798;2023-01-28T05:14:51;-0.30;99.90
21830;DHT22;11077;50.264;6.798;2023-01-28T05:17:20;-0.30;99.90
21830;DHT22;11077;50.264;6.798;2023-01-28T05:19:47;-0.30;99.90
21830;DHT22;11077;50.264;6.798;2023-01-28T05:22:22;-0.30;99.90
21830;DHT22;11077;50.264;6.798;2023-01-28T05:25:29;-0.20;99.90
21830;DHT22;11077;50.264;6.798;2023-01-28T05:27:57;-0.20;99.90
21830;DHT22;11077;50.264;6.798;2023-01-28T05:30:25;-0.20;99.90
21830;DHT22;11077;50.264;6.798;2023-01-28T05:32:54;-0.20;99.90
21830;DHT22;11077;50.264;6.798;2023-01-28T05:35:22;-0.20;99.90
21830;DHT22;11077;50.264;6.798;2023-01-28T05:37:50;-0.20;99.90
21830;DHT22;11077;50.264;6.798;2023-01-28T05:40:18;-0.20;99.90
21830;DHT22;11077;50.264;6.798;2023-01-28T05:42:47;-0.30;99.90
21830;DHT22;11077;50.264;6.798;2023-01-28T05:45:34;-0.30;99.90
21830;DHT22;11077;50.264;6.798;2023-01-28T05:48:25;-0.30;99.90
21830;DHT22;11077;50.264;6.798;2023-01-28T05:51:11;-0.40;99.90
21830;DHT22;11077;50.264;6.798;2023-01-28T05:53:43;-0.40;99.90
21830;DHT22;11077;50.264;6.798;2023-01-28T05:56:10;-0.40;99.90
21830;DHT22;11077;50.264;6.798;2023-01-28T05:58:41;-0.40;99.90
21830;DHT22;11077;50.264;6.798;2023-01-28T06:01:08;-0.40;99.90
21830;DHT22;11077;50.264;6.798;2023-01-28T06:03:40;-0.40;99.90
21830;DHT22;11077;50.264;6.798;2023-01-28T06:06:08;-0.50;99.90
21830;DHT22;11077;50.264;6.798;2023-01-28T06:08:35;-0.50;99.90
21830;DHT22;11077;50.264;6.798;2023-01-28T06:11:03;-0.50;99.90
21830;DHT22;11077;50.264;6.798;2023-01-28T06:13:33;-0.40;99.90
21830;DHT22;11077;50.264;6.798;2023-01-28T06:16:20;-0.40;99.90
21830;DHT22;11077;50.264;6.798;2023-01-28T06:19:09;-0.50;99.90
21830;DHT22;11077;50.264;6.798;2023-01-28T06:21:37;-0.60;99.90
21830;DHT22;11077;50.264;6.798;2023-01-28T06:24:05;-0.60;99.90
21830;DHT22;11077;50.264;6.798;2023-01-28T06:26:32;-0.60;99.90
21830;DHT22;11077;50.264;6.798;2023-01-28T06:29:00;-0.60;99.90
21830;DHT22;11077;50.264;6.798;2023-01-28T06:31:29;-0.60;99.90
21830;DHT22;11077;50.264;6.798;2023-01-28T06:33:56;-0.60;99.90
21830;DHT22;11077;50.264;6.798;2023-01-28T06:36:23;-0.60;99.90
21830;DHT22;11077;50.264;6.798;2023-01-28T06:38:51;-0.50;99.90
21830;DHT22;11077;50.264;6.798;2023-01-28T06:41:18;-0.50;99.90
21830;DHT22;11077;50.264;6.798;2023-01-28T06:43:46;-0.50;99.90
21830;DHT22;11077;50.264;6.798;2023-01-28T06:46:13;-0.50;99.90
21830;DHT22;11077;50.264;6.798;2023-01-28T06:48:42;-0.50;99.90
21830;DHT22;11077;50.264;6.798;2023-01-28T06:51:09;-0.50;99.90
21830;DHT22;11077;50.264;6.798;2023-01-28T06:53:36;-0.50;99.90
21830;DHT22;11077;50.264;6.798;2023-01-28T06:56:04;-0.50;99.90
21830;DHT22;11077;50.264;6.798;2023-01-28T06:58:33;-0.50;99.90
21830;DHT22;11077;50.264;6.798;2023-01-28T07:01:02;-0.50;99.90
21830;DHT22;11077;50.264;6.798;2023-01-28T07:03:30;-0.50;99.90
21830;DHT22;11077;50.264;6.798;2023-01-28T07:06:02;-0.50;99.90
21830;DHT22;11077;50.264;6.798;2023-01-28T07:08:30;-0.50;99.90
21830;DHT22;11077;50.264;6.798;2023-01-28T07:10:58;-0.60;99.90
21830;DHT22;11077;50.264;6.798;2023-01-28T07:13:26;-0.60;99.90
21830;DHT22;11077;50.264;6.798;2023-01-28T07:15:53;-0.60;99.90
21830;DHT22;11077;50.264;6.798;2023-01-28T07:18:21;-0.60;99.90
21830;DHT22;11077;50.264;6.798;2023-01-28T07:20:48;-0.50;99.90
21830;DHT22;11077;50.264;6.798;2023-01-28T07:23:18;-0.50;99.90
21830;DHT22;11077;50.264;6.798;2023-01-28T07:25:45;-0.50;99.90
21830;DHT22;11077;50.264;6.798;2023-01-28T07:28:13;-0.60;99.90
21830;DHT22;11077;50.264;6.798;2023-01-28T07:30:47;-0.50;99.90
21830;DHT22;11077;50.264;6.798;2023-01-28T07:33:15;-0.50;99.90
21830;DHT22;11077;50.264;6.798;2023-01-28T07:35:42;-0.60;99.90
21830;DHT22;11077;50.264;6.798;2023-01-28T07:38:10;-0.60;99.90
21830;DHT22;11077;50.264;6.798;2023-01-28T07:40:39;-0.70;99.90
21830;DHT22;11077;50.264;6.798;2023-01-28T07:43:08;-0.60;99.90
21830;DHT22;11077;50.264;6.798;2023-01-28T07:45:37;-0.60;99.90
21830;DHT22;11077;50.264;6.798;2023-01-28T07:48:06;-0.60;99.90
21830;DHT22;11077;50.264;6.798;2023-01-28T07:50:36;-0.60;99.90
21830;DHT22;11077;50.264;6.798;2023-01-28T07:53:05;-0.60;99.90
21830;DHT22;11077;50.264;6.798;2023-01-28T07:55:33;-0.60;99.90
21830;DHT22;11077;50.264;6.798;2023-01-28T07:58:04;-0.60;99.90
21830;DHT22;11077;50.264;6.798;2023-01-28T08:00:34;-0.60;99.90
21830;DHT22;11077;50.264;6.798;2023-01-28T08:03:04;-0.60;99.90
21830;DHT22;11077;50.264;6.798;2023-01-28T08:05:37;-0.60;99.90
21830;DHT22;11077;50.264;6.798;2023-01-28T08:08:07;-0.60;99.90
21830;DHT22;11077;50.264;6.798;2023-01-28T08:10:35;-0.60;99.90
21830;DHT22;11077;50.264;6.798;2023-01-28T08:13:04;-0.60;99.90
21830;DHT22;11077;50.264;6.798;2023-01-28T08:15:32;-0.60;99.90
21830;DHT22;11077;50.264;6.798;2023-01-28T08:18:00;-0.60;99.90
21830;DHT22;11077;50.264;6.798;2023-01-28T08:20:28;-0.60;99.90
21830;DHT22;11077;50.264;6.798;2023-01-28T08:23:05;-0.60;99.90
21830;DHT22;11077;50.264;6.798;2023-01-28T08:25:33;-0.70;99.90
21830;DHT22;11077;50.264;6.798;2023-01-28T08:28:00;-0.70;99.90
21830;DHT22;11077;50.264;6.798;2023-01-28T08:30:30;-0.70;99.90
21830;DHT22;11077;50.264;6.798;2023-01-28T08:32:58;-0.70;99.90
21830;DHT22;11077;50.264;6.798;2023-01-28T08:35:26;-0.70;99.90
21830;DHT22;11077;50.264;6.798;2023-01-28T08:37:54;-0.60;99.90
21830;DHT22;11077;50.264;6.798;2023-01-28T08:40:22;-0.70;99.90
21830;DHT22;11077;50.264;6.798;2023-01-28T08:42:51;-0.70;99.90
21830;DHT22;11077;50.264;6.798;2023-01-28T08:45:19;-0.70;99.90
21830;DHT22;11077;50.264;6.798;2023-01-28T08:47:49;-0.70;99.90
21830;DHT22;11077;50.264;6.798;2023-01-28T08:50:18;-0.70;99.90
21830;DHT22;11077;50.264;6.798;2023-01-28T08:52:46;-0.80;99.90
21830;DHT22;11077;50.264;6.798;2023-01-28T08:55:15;-0.70;99.90
21830;DHT22;11077;50.264;6.798;2023-01-28T08:57:43;-0.70;99.90
21830;DHT22;11077;50.264;6.798;2023-01-28T09:00:12;-0.70;99.90
21830;DHT22;11077;50.264;6.798;2023-01-28T09:02:40;-0.70;99.90
21830;DHT22;11077;50.264;6.798;2023-01-28T09:05:09;-0.80;99.90
21830;DHT22;11077;50.264;6.798;2023-01-28T09:07:37;-0.80;99.90
21830;DHT22;11077;50.264;6.798;2023-01-28T09:10:05;-0.70;99.90
21830;DHT22;11077;50.264;6.798;2023-01-28T09:12:32;-0.70;99.90
21830;DHT22;11077;50.264;6.798;2023-01-28T09:15:00;-0.70;99.90
21830;DHT22;11077;50.264;6.798;2023-01-28T09:17:27;-0.70;99.90
21830;DHT22;11077;50.264;6.798;2023-01-28T09:19:55;-0.70;99.90
21830;DHT22;11077;50.264;6.798;2023-01-28T09:22:23;-0.70;99.90
21830;DHT22;11077;50.264;6.798;2023-01-28T09:24:51;-0.60;99.90
21830;DHT22;11077;50.264;6.798;2023-01-28T09:27:18;-0.60;99.90
21830;DHT22;11077;50.264;6.798;2023-01-28T09:29:46;-0.60;99.90
21830;DHT22;11077;50.264;6.798;2023-01-28T09:32:13;-0.60;99.90
21830;DHT22;11077;50.264;6.798;2023-01-28T09:34:41;-0.50;99.90
21830;DHT22;11077;50.264;6.798;2023-01-28T09:37:09;-0.50;99.90
21830;DHT22;11077;50.264;6.798;2023-01-28T09:39:38;-0.50;99.90
21830;DHT22;11077;50.264;6.798;2023-01-28T09:45:08;-0.60;99.90
21830;DHT22;11077;50.264;6.798;2023-01-28T09:47:42;-0.60;99.90
21830;DHT22;11077;50.264;6.798;2023-01-28T09:50:14;-0.70;99.90
21830;DHT22;11077;50.264;6.798;2023-01-28T09:52:43;-0.60;99.90
21830;DHT22;11077;50.264;6.798;2023-01-28T09:55:18;-0.60;99.90
21830;DHT22;11077;50.264;6.798;2023-01-28T09:57:50;-0.60;99.90
21830;DHT22;11077;50.264;6.798;2023-01-28T10:00:21;-0.60;99.90
21830;DHT22;11077;50.264;6.798;2023-01-28T10:03:06;-0.60;99.90
21830;DHT22;11077;50.264;6.798;2023-01-28T10:05:45;-0.50;99.90
21830;DHT22;11077;50.264;6.798;2023-01-28T10:08:30;-0.50;99.90
21830;DHT22;11077;50.264;6.798;2023-01-28T10:11:06;-0.50;99.90
21830;DHT22;11077;50.264;6.798;2023-01-28T10:13:43;-0.50;99.90
21830;DHT22;11077;50.264;6.798;2023-01-28T10:16:20;-0.60;99.90
21830;DHT22;11077;50.264;6.798;2023-01-28T10:18:54;-0.60;99.90
21830;DHT22;11077;50.264;6.798;2023-01-28T10:21:26;-0.60;99.90
21830;DHT22;11077;50.264;6.798;2023-01-28T10:24:02;-0.60;99.90
21830;DHT22;11077;50.264;6.798;2023-01-28T10:26:33;-0.50;99.90
21830;DHT22;11077;50.264;6.798;2023-01-28T10:29:08;-0.50;99.90
21830;DHT22;11077;50.264;6.798;2023-01-28T10:31:41;-0.40;99.90
21830;DHT22;11077;50.264;6.798;2023-01-28T10:34:10;-0.40;99.90
21830;DHT22;11077;50.264;6.798;2023-01-28T10:36:37;-0.40;99.90
21830;DHT22;11077;50.264;6.798;2023-01-28T10:39:05;-0.40;99.90
21830;DHT22;11077;50.264;6.798;2023-01-28T10:41:35;-0.50;99.90
21830;DHT22;11077;50.264;6.798;2023-01-28T10:44:02;-0.50;99.90
21830;DHT22;11077;50.264;6.798;2023-01-28T10:46:32;-0.60;99.90
21830;DHT22;11077;50.264;6.798;2023-01-28T10:49:06;-0.70;99.90
21830;DHT22;11077;50.264;6.798;2023-01-28T10:51:40;-0.70;99.90
21830;DHT22;11077;50.264;6.798;2023-01-28T10:54:19;-0.70;99.90
21830;DHT22;11077;50.264;6.798;2023-01-28T10:56:51;-0.70;99.90
21830;DHT22;11077;50.264;6.798;2023-01-28T10:59:21;-0.70;99.90
21830;DHT22;11077;50.264;6.798;2023-01-28T11:01:51;-0.70;99.90
21830;DHT22;11077;50.264;6.798;2023-01-28T11:04:23;-0.70;99.90
21830;DHT22;11077;50.264;6.798;2023-01-28T11:06:55;-0.60;99.90
21830;DHT22;11077;50.264;6.798;2023-01-28T11:09:25;-0.60;99.90
21830;DHT22;11077;50.264;6.798;2023-01-28T11:11:54;-0.60;99.90
21830;DHT22;11077;50.264;6.798;2023-01-28T11:14:23;-0.60;99.90
21830;DHT22;11077;50.264;6.798;2023-01-28T11:16:52;-0.60;99.90
21830;DHT22;11077;50.264;6.798;2023-01-28T11:19:30;-0.60;99.90
21830;DHT22;11077;50.264;6.798;2023-01-28T11:22:00;-0.60;99.90
21830;DHT22;11077;50.264;6.798;2023-01-28T11:24:30;-0.50;99.90
21830;DHT22;11077;50.264;6.798;2023-01-28T11:27:10;-0.50;99.90
21830;DHT22;11077;50.264;6.798;2023-01-28T11:29:39;-0.50;99.90
21830;DHT22;11077;50.264;6.798;2023-01-28T11:32:15;-0.50;99.90
21830;DHT22;11077;50.264;6.798;2023-01-28T11:34:48;-0.50;99.90
21830;DHT22;11077;50.264;6.798;2023-01-28T11:37:18;-0.50;99.90
21830;DHT22;11077;50.264;6.798;2023-01-28T11:39:47;-0.60;99.90
21830;DHT22;11077;50.264;6.798;2023-01-28T11:42:17;-0.60;99.90
21830;DHT22;11077;50.264;6.798;2023-01-28T11:44:45;-0.60;99.90
21830;DHT22;11077;50.264;6.798;2023-01-28T11:50:32;-0.60;99.90
21830;DHT22;11077;50.264;6.798;2023-01-28T11:59:07;-0.50;99.90
21830;DHT22;11077;50.264;6.798;2023-01-28T12:01:41;-0.50;99.90
21830;DHT22;11077;50.264;6.798;2023-01-28T12:04:21;-0.60;99.90
21830;DHT22;11077;50.264;6.798;2023-01-28T12:07:14;-0.60;99.90
21830;DHT22;11077;50.264;6.798;2023-01-28T12:09:51;-0.50;99.90
21830;DHT22;11077;50.264;6.798;2023-01-28T12:12:43;-0.50;99.90
21830;DHT22;11077;50.264;6.798;2023-01-28T12:15:55;-0.40;99.90
21830;DHT22;11077;50.264;6.798;2023-01-28T12:18:54;-0.50;99.90
21830;DHT22;11077;50.264;6.798;2023-01-28T12:21:32;-0.50;99.90
21830;DHT22;11077;50.264;6.798;2023-01-28T12:24:16;-0.50;99.90
21830;DHT22;11077;50.264;6.798;2023-01-28T12:26:51;-0.60;99.90
21830;DHT22;11077;50.264;6.798;2023-01-28T12:29:28;-0.60;99.90
21830;DHT22;11077;50.264;6.798;2023-01-28T12:32:24;-0.60;99.90
21830;DHT22;11077;50.264;6.798;2023-01-28T12:35:25;-0.60;99.90
21830;DHT22;11077;50.264;6.798;2023-01-28T12:37:59;-0.60;99.90
21830;DHT22;11077;50.264;6.798;2023-01-28T12:40:56;-0.60;99.90
21830;DHT22;11077;50.264;6.798;2023-01-28T12:46:23;-0.60;99.90
21830;DHT22;11077;50.264;6.798;2023-01-28T12:49:15;-0.70;99.90
21830;DHT22;11077;50.264;6.798;2023-01-28T12:52:00;-0.70;99.90
21830;DHT22;11077;50.264;6.798;2023-01-28T12:54:34;-0.70;99.90
21830;DHT22;11077;50.264;6.798;2023-01-28T12:57:03;-0.80;99.90
21830;DHT22;11077;50.264;6.798;2023-01-28T12:59:36;-0.70;99.90
21830;DHT22;11077;50.264;6.798;2023-01-28T13:02:16;-0.70;99.90
21830;DHT22;11077;50.264;6.798;2023-01-28T13:04:50;-0.70;99.90
21830;DHT22;11077;50.264;6.798;2023-01-28T13:07:22;-0.70;99.90
21830;DHT22;11077;50.264;6.798;2023-01-28T13:10:01;-0.70;99.90
21830;DHT22;11077;50.264;6.798;2023-01-28T13:12:30;-0.60;99.90
21830;DHT22;11077;50.264;6.798;2023-01-28T13:14:58;-0.60;99.90
21830;DHT22;11077;50.264;6.798;2023-01-28T13:17:27;-0.70;99.90
21830;DHT22;11077;50.264;6.798;2023-01-28T13:19:58;-0.80;99.90
21830;DHT22;11077;50.264;6.798;2023-01-28T13:22:30;-0.90;99.90
21830;DHT22;11077;50.264;6.798;2023-01-28T13:25:17;-0.90;99.90
21830;DHT22;11077;50.264;6.798;2023-01-28T13:27:54;-0.90;99.90
21830;DHT22;11077;50.264;6.798;2023-01-28T13:30:25;-0.90;99.90
21830;DHT22;11077;50.264;6.798;2023-01-28T13:32:57;-0.90;99.90
21830;DHT22;11077;50.264;6.798;2023-01-28T13:35:32;-0.90;99.90
21830;DHT22;11077;50.264;6.798;2023-01-28T13:38:06;-1.00;99.90
21830;DHT22;11077;50.264;6.798;2023-01-28T13:40:35;-1.00;99.90
21830;DHT22;11077;50.264;6.798;2023-01-28T13:43:04;-0.90;99.90
21830;DHT22;11077;50.264;6.798;2023-01-28T13:45:32;-1.00;99.90
21830;DHT22;11077;50.264;6.798;2023-01-28T13:48:17;-1.00;99.90
21830;DHT22;11077;50.264;6.798;2023-01-28T13:50:51;-1.00;99.90
21830;DHT22;11077;50.264;6.798;2023-01-28T13:53:26;-1.00;99.90
21830;DHT22;11077;50.264;6.798;2023-01-28T13:55:57;-1.00;99.90
21830;DHT22;11077;50.264;6.798;2023-01-28T14:01:53;-0.90;99.90
21830;DHT22;11077;50.264;6.798;2023-01-28T14:04:39;-0.90;99.90
21830;DHT22;11077;50.264;6.798;2023-01-28T14:07:21;-0.90;99.90
21830;DHT22;11077;50.264;6.798;2023-01-28T14:10:06;-0.90;99.90
21830;DHT22;11077;50.264;6.798;2023-01-28T14:12:53;-1.00;99.90
21830;DHT22;11077;50.264;6.798;2023-01-28T14:15:45;-1.00;99.90
21830;DHT22;11077;50.264;6.798;2023-01-28T14:18:23;-1.00;99.90
21830;DHT22;11077;50.264;6.798;2023-01-28T14:20:51;-1.10;99.90
21830;DHT22;11077;50.264;6.798;2023-01-28T14:23:22;-1.00;99.90
21830;DHT22;11077;50.264;6.798;2023-01-28T14:26:13;-1.00;99.90
21830;DHT22;11077;50.264;6.798;2023-01-28T14:28:49;-0.90;99.90
21830;DHT22;11077;50.264;6.798;2023-01-28T14:31:26;-1.00;99.90
21830;DHT22;11077;50.264;6.798;2023-01-28T14:33:54;-0.90;99.90
21830;DHT22;11077;50.264;6.798;2023-01-28T14:36:25;-0.90;99.90
21830;DHT22;11077;50.264;6.798;2023-01-28T14:38:55;-0.90;99.90
21830;DHT22;11077;50.264;6.798;2023-01-28T14:41:25;-0.90;99.90
21830;DHT22;11077;50.264;6.798;2023-01-28T14:43:54;-0.90;99.90
21830;DHT22;11077;50.264;6.798;2023-01-28T14:46:30;-0.90;99.90
21830;DHT22;11077;50.264;6.798;2023-01-28T14:49:11;-0.90;99.90
21830;DHT22;11077;50.264;6.798;2023-01-28T14:51:51;-0.80;99.90
21830;DHT22;11077;50.264;6.798;2023-01-28T14:54:34;-0.90;99.90
21830;DHT22;11077;50.264;6.798;2023-01-28T14:57:24;-0.90;99.90
21830;DHT22;11077;50.264;6.798;2023-01-28T14:59:54;-0.90;99.90
21830;DHT22;11077;50.264;6.798;2023-01-28T15:02:24;-1.10;99.90
21830;DHT22;11077;50.264;6.798;2023-01-28T15:04:52;-1.10;99.90
21830;DHT22;11077;50.264;6.798;2023-01-28T15:07:22;-1.10;99.90
21830;DHT22;11077;50.264;6.798;2023-01-28T15:10:00;-1.20;99.90
21830;DHT22;11077;50.264;6.798;2023-01-28T15:12:29;-1.20;99.90
21830;DHT22;11077;50.264;6.798;2023-01-28T15:15:07;-1.20;99.90
21830;DHT22;11077;50.264;6.798;2023-01-28T15:17:34;-1.30;99.90
21830;DHT22;11077;50.264;6.798;2023-01-28T15:20:02;-1.30;99.90
21830;DHT22;11077;50.264;6.798;2023-01-28T15:22:33;-1.30;99.90
21830;DHT22;11077;50.264;6.798;2023-01-28T15:25:02;-1.30;99.90
21830;DHT22;11077;50.264;6.798;2023-01-28T15:27:30;-1.20;99.90
21830;DHT22;11077;50.264;6.798;2023-01-28T15:29:59;-1.30;99.90
21830;DHT22;11077;50.264;6.798;2023-01-28T15:32:29;-1.30;99.90
21830;DHT22;11077;50.264;6.798;2023-01-28T15:34:58;-1.40;99.90
21830;DHT22;11077;50.264;6.798;2023-01-28T15:37:26;-1.40;99.90
21830;DHT22;11077;50.264;6.798;2023-01-28T15:40:02;-1.40;99.90
21830;DHT22;11077;50.264;6.798;2023-01-28T15:42:32;-1.40;99.90
21830;DHT22;11077;50.264;6.798;2023-01-28T15:44:59;-1.40;99.90
21830;DHT22;11077;50.264;6.798;2023-01-28T15:47:29;-1.60;99.90
21830;DHT22;11077;50.264;6.798;2023-01-28T15:50:00;-1.40;99.90
21830;DHT22;11077;50.264;6.798;2023-01-28T15:52:33;-1.40;99.90
21830;DHT22;11077;50.264;6.798;2023-01-28T15:55:04;-1.40;99.90
21830;DHT22;11077;50.264;6.798;2023-01-28T15:57:33;-1.40;99.90
21830;DHT22;11077;50.264;6.798;2023-01-28T16:00:11;-1.50;99.90
21830;DHT22;11077;50.264;6.798;2023-01-28T16:02:43;-1.50;99.90
21830;DHT22;11077;50.264;6.798;2023-01-28T16:05:26;-1.50;99.90
21830;DHT22;11077;50.264;6.798;2023-01-28T16:07:54;-1.40;99.90
21830;DHT22;11077;50.264;6.798;2023-01-28T16:10:26;-1.40;99.90
21830;DHT22;11077;50.264;6.798;2023-01-28T16:12:57;-1.40;99.90
21830;DHT22;11077;50.264;6.798;2023-01-28T16:15:30;-1.50;99.90
21830;DHT22;11077;50.264;6.798;2023-01-28T16:17:57;-1.50;99.90
21830;DHT22;11077;50.264;6.798;2023-01-28T16:20:26;-1.40;99.90
21830;DHT22;11077;50.264;6.798;2023-01-28T16:22:59;-1.40;99.90
21830;DHT22;11077;50.264;6.798;2023-01-28T16:25:41;-1.40;99.90
21830;DHT22;11077;50.264;6.798;2023-01-28T16:28:29;-1.50;99.90
21830;DHT22;11077;50.264;6.798;2023-01-28T16:31:09;-1.40;99.90
21830;DHT22;11077;50.264;6.798;2023-01-28T16:33:38;-1.40;99.90
21830;DHT22;11077;50.264;6.798;2023-01-28T16:36:10;-1.40;99.90
21830;DHT22;11077;50.264;6.798;2023-01-28T16:38:38;-1.40;99.90